createdAt,value
2023-01-22T00:00:31.300Z,15.27
2023-01-22T00:03:19.462Z,12.57
2023-01-22T00:06:08.245Z,13.18
2023-01-22T00:08:56.416Z,12.55
2023-01-22T00:11:44.573Z,13.65
2023-01-22T00:14:32.787Z,13.45
2023-01-22T00:17:22.360Z,13.07
2023-01-22T00:20:12.389Z,11.77
2023-01-22T00:23:00.627Z,12.65
2023-01-22T00:25:48.783Z,15.98
2023-01-22T00:28:37.624Z,14.75
2023-01-22T00:31:25.997Z,14.85
2023-01-22T00:34:15.650Z,14.63
2023-01-22T00:37:03.837Z,14.27
2023-01-22T00:39:52.012Z,14.02
2023-01-22T00:42:40.413Z,15.77
2023-01-22T00:45:28.783Z,13.77
2023-01-22T00:48:16.948Z,11.75
2023-01-22T00:51:08.780Z,13.02
2023-01-22T00:53:57.305Z,14.45
2023-01-22T00:56:45.486Z,12.95
2023-01-22T00:59:33.634Z,12.73
2023-01-22T01:02:21.879Z,12.57
2023-01-22T01:05:10.288Z,13.98
2023-01-22T01:07:59.836Z,12.73
2023-01-22T01:10:48.090Z,12.55
2023-01-22T01:13:39.885Z,11.45
2023-01-22T01:16:30.257Z,10.38
2023-01-22T01:19:20.484Z,8.50
2023-01-22T01:22:08.849Z,10.88
2023-01-22T01:24:58.355Z,14.88
2023-01-22T01:27:46.493Z,9.77
2023-01-22T01:30:34.714Z,10.85
2023-01-22T01:33:23.297Z,7.25
2023-01-22T01:36:13.833Z,9.63
2023-01-22T01:39:04.345Z,14.45
2023-01-22T01:41:53.995Z,9.57
2023-01-22T01:44:44.117Z,8.57
2023-01-22T01:47:35.531Z,8.85
2023-01-22T01:50:26.112Z,10.18
2023-01-22T01:53:14.830Z,9.45
2023-01-22T01:56:06.451Z,9.52
2023-01-22T01:58:59.617Z,9.40
2023-01-22T02:01:51.132Z,7.88
2023-01-22T02:04:39.326Z,7.28
2023-01-22T02:07:27.511Z,8.13
2023-01-22T02:10:16.052Z,8.70
2023-01-22T02:13:09.553Z,7.40
2023-01-22T02:15:59.103Z,5.90
2023-01-22T02:18:47.864Z,8.23
2023-01-22T02:21:39.418Z,8.32
2023-01-22T02:24:31.386Z,6.30
2023-01-22T02:27:19.667Z,8.50
2023-01-22T02:30:09.617Z,8.10
2023-01-22T02:32:57.787Z,8.23
2023-01-22T02:35:45.946Z,7.93
2023-01-22T02:38:35.399Z,7.43
2023-01-22T02:41:23.907Z,9.85
2023-01-22T02:44:12.081Z,5.82
2023-01-22T02:47:00.617Z,7.65
2023-01-22T02:49:48.857Z,8.68
2023-01-22T02:52:37.053Z,7.50
2023-01-22T02:55:26.549Z,6.75
2023-01-22T02:58:14.715Z,6.63
2023-01-22T03:01:18.848Z,10.55
2023-01-22T03:04:10.941Z,6.93
2023-01-22T03:06:59.265Z,6.18
2023-01-22T03:09:48.442Z,6.88
2023-01-22T03:12:55.572Z,7.63
2023-01-22T03:16:01.361Z,8.73
2023-01-22T03:19:06.885Z,8.10
2023-01-22T03:21:55.046Z,7.38
2023-01-22T03:24:43.181Z,7.47
2023-01-22T03:27:32.442Z,7.70
2023-01-22T03:30:21.960Z,6.47
2023-01-22T03:33:10.118Z,6.70
2023-01-22T03:36:02.077Z,5.93
2023-01-22T03:38:50.268Z,5.53
2023-01-22T03:41:38.720Z,7.57
2023-01-22T03:44:26.914Z,8.15
2023-01-22T03:47:16.406Z,7.00
2023-01-22T03:50:05.176Z,7.13
2023-01-22T03:52:53.360Z,5.35
2023-01-22T03:55:41.501Z,6.47
2023-01-22T03:58:30.852Z,5.72
2023-01-22T04:01:21.270Z,4.05
2023-01-22T04:04:10.897Z,5.97
2023-01-22T04:06:59.061Z,5.75
2023-01-22T04:09:47.220Z,6.68
2023-01-22T04:12:35.715Z,4.68
2023-01-22T04:15:23.908Z,6.28
2023-01-22T04:18:12.522Z,6.38
2023-01-22T04:21:02.115Z,5.03
2023-01-22T04:23:50.279Z,6.65
2023-01-22T04:26:38.439Z,5.88
2023-01-22T04:29:26.618Z,4.68
2023-01-22T04:32:14.912Z,5.32
2023-01-22T04:35:03.945Z,4.45
2023-01-22T04:37:53.420Z,4.15
2023-01-22T04:40:41.592Z,5.53
2023-01-22T04:43:29.760Z,5.57
2023-01-22T04:46:17.931Z,4.90
2023-01-22T04:49:06.129Z,5.32
2023-01-22T04:51:54.724Z,4.45
2023-01-22T04:54:44.861Z,4.93
2023-01-22T04:57:33.009Z,4.70
2023-01-22T05:00:21.402Z,5.57
2023-01-22T05:03:11.165Z,5.55
2023-01-22T05:06:03.782Z,4.95
2023-01-22T05:08:51.926Z,7.15
2023-01-22T05:11:41.986Z,7.07
2023-01-22T05:14:30.171Z,6.97
2023-01-22T05:17:19.443Z,9.75
2023-01-22T05:20:09.223Z,10.38
2023-01-22T05:22:57.381Z,9.38
2023-01-22T05:25:49.374Z,7.60
2023-01-22T05:28:38.877Z,7.13
2023-01-22T05:31:27.051Z,8.93
2023-01-22T05:34:15.257Z,8.07
2023-01-22T05:37:03.418Z,6.75
2023-01-22T05:39:51.791Z,9.98
2023-01-22T05:42:39.937Z,7.97
2023-01-22T05:45:29.437Z,8.20
2023-01-22T05:48:17.600Z,8.10
2023-01-22T05:51:07.161Z,9.65
2023-01-22T05:53:55.394Z,9.73
2023-01-22T05:56:43.552Z,9.80
2023-01-22T05:59:31.756Z,9.07
2023-01-22T06:02:21.319Z,8.30
2023-01-22T06:05:09.865Z,8.80
2023-01-22T06:07:58.045Z,8.63
2023-01-22T06:10:46.209Z,8.32
2023-01-22T06:13:35.279Z,8.93
2023-01-22T06:16:23.486Z,11.77
2023-01-22T06:19:13.508Z,9.77
2023-01-22T06:22:01.687Z,9.48
2023-01-22T06:24:49.843Z,10.60
2023-01-22T06:27:38.012Z,11.75
2023-01-22T06:30:26.150Z,11.40
2023-01-22T06:33:14.536Z,12.25
2023-01-22T06:36:04.636Z,10.00
2023-01-22T06:38:52.815Z,10.60
2023-01-22T06:41:40.997Z,11.05
2023-01-22T06:44:29.123Z,10.60
2023-01-22T06:47:17.312Z,10.25
2023-01-22T06:50:06.153Z,10.15
2023-01-22T06:52:55.713Z,14.45
2023-01-22T06:55:43.882Z,8.88
2023-01-22T06:58:32.118Z,9.98
2023-01-22T07:01:20.288Z,9.82
2023-01-22T07:04:08.461Z,10.25
2023-01-22T07:06:56.581Z,13.13
2023-01-22T07:09:46.084Z,10.43
2023-01-22T07:12:34.588Z,13.05
2023-01-22T07:15:22.795Z,12.40
2023-01-22T07:18:14.361Z,10.68
2023-01-22T07:21:02.667Z,14.25
2023-01-22T07:23:50.791Z,11.25
2023-01-22T07:26:40.316Z,12.23
2023-01-22T07:29:28.473Z,11.35
2023-01-22T07:32:16.700Z,10.57
2023-01-22T07:35:05.276Z,12.23
2023-01-22T07:37:54.110Z,11.77
2023-01-22T07:40:42.257Z,11.93
2023-01-22T07:43:32.237Z,11.57
2023-01-22T07:46:20.422Z,15.60
2023-01-22T07:49:08.642Z,13.43
2023-01-22T07:51:57.032Z,12.93
2023-01-22T07:54:45.197Z,13.35
2023-01-22T07:57:33.365Z,18.95
2023-01-22T08:00:23.273Z,13.55
2023-01-22T08:03:13.511Z,12.18
2023-01-22T08:06:01.958Z,13.57
2023-01-22T08:08:50.149Z,12.80
2023-01-22T08:11:38.329Z,12.55
2023-01-22T08:14:26.477Z,12.05
2023-01-22T08:17:16.102Z,13.93
2023-01-22T08:20:04.853Z,16.02
2023-01-22T08:22:57.479Z,15.65
2023-01-22T08:25:45.767Z,18.27
2023-01-22T08:28:34.376Z,15.50
2023-01-22T08:31:27.948Z,13.32
2023-01-22T08:34:18.119Z,12.50
2023-01-22T08:37:07.371Z,16.67
2023-01-22T08:39:56.186Z,13.32
2023-01-22T08:42:44.359Z,13.40
2023-01-22T08:45:32.659Z,13.90
2023-01-22T08:48:20.905Z,12.80
2023-01-22T08:51:10.702Z,12.50
2023-01-22T08:53:58.868Z,12.15
2023-01-22T08:56:48.064Z,13.82
2023-01-22T08:59:36.284Z,14.63
2023-01-22T09:02:24.486Z,13.93
2023-01-22T09:05:13.000Z,15.70
2023-01-22T09:08:02.503Z,16.55
2023-01-22T09:10:50.679Z,14.27
2023-01-22T09:13:38.863Z,17.17
2023-01-22T09:16:28.639Z,13.75
2023-01-22T09:19:17.794Z,15.43
2023-01-22T09:22:07.575Z,11.77
2023-01-22T09:24:57.100Z,16.27
2023-01-22T09:27:45.429Z,15.25
2023-01-22T09:30:33.706Z,14.98
2023-01-22T09:33:21.962Z,13.05
2023-01-22T09:36:12.230Z,13.18
2023-01-22T09:39:00.399Z,13.90
2023-01-22T09:41:53.494Z,12.52
2023-01-22T09:44:46.452Z,14.07
2023-01-22T09:47:37.337Z,14.73
2023-01-22T09:50:28.057Z,13.10
2023-01-22T09:53:20.316Z,13.32
2023-01-22T09:56:15.628Z,13.55
2023-01-22T09:59:08.643Z,13.80
2023-01-22T10:01:58.819Z,13.73
2023-01-22T10:04:50.956Z,13.25
2023-01-22T10:07:45.128Z,13.50
2023-01-22T10:10:34.361Z,15.07
2023-01-22T10:13:24.191Z,14.57
2023-01-22T10:16:13.893Z,14.70
2023-01-22T10:19:07.574Z,14.00
2023-01-22T10:22:01.600Z,12.40
2023-01-22T10:24:50.442Z,15.98
2023-01-22T10:27:40.339Z,18.90
2023-01-22T10:30:30.185Z,15.20
2023-01-22T10:33:25.099Z,14.23
2023-01-22T10:36:15.804Z,14.02
2023-01-22T10:39:06.347Z,17.30
2023-01-22T10:42:02.608Z,14.88
2023-01-22T10:44:51.821Z,16.10
2023-01-22T10:47:39.988Z,13.20
2023-01-22T10:50:29.554Z,14.23
2023-01-22T10:53:32.770Z,14.48
2023-01-22T10:56:29.462Z,12.48
2023-01-22T10:59:23.037Z,13.85
2023-01-22T11:02:16.887Z,14.35
2023-01-22T11:05:15.377Z,14.40
2023-01-22T11:08:07.487Z,12.52
2023-01-22T11:10:58.528Z,15.23
2023-01-22T11:13:54.960Z,14.75
2023-01-22T11:16:44.793Z,12.52
2023-01-22T11:19:40.694Z,13.50
2023-01-22T11:22:34.577Z,12.30
2023-01-22T11:25:24.627Z,13.70
2023-01-22T11:28:29.013Z,14.05
2023-01-22T11:31:30.019Z,13.20
2023-01-22T11:34:43.118Z,14.25
2023-01-22T11:37:42.360Z,14.73
2023-01-22T11:40:33.504Z,14.40
2023-01-22T11:43:33.531Z,14.10
2023-01-22T11:46:32.786Z,13.05
2023-01-22T11:49:30.809Z,15.20
2023-01-22T11:52:31.015Z,13.50
2023-01-22T11:55:29.177Z,15.63
2023-01-22T11:58:30.813Z,15.10
2023-01-22T12:01:25.876Z,16.27
2023-01-22T12:04:34.400Z,13.68
2023-01-22T12:07:49.461Z,17.35
2023-01-22T12:11:05.257Z,24.05
2023-01-22T12:14:20.088Z,16.73
2023-01-22T12:17:20.089Z,20.00
2023-01-22T12:20:37.633Z,20.05
2023-01-22T12:23:33.792Z,15.30
2023-01-22T12:26:26.202Z,16.00
2023-01-22T12:29:21.676Z,15.80
2023-01-22T12:32:12.890Z,16.23
2023-01-22T12:37:58.290Z,15.48
2023-01-22T12:41:04.951Z,14.82
2023-01-22T12:43:56.156Z,16.95
2023-01-22T12:49:50.561Z,17.88
2023-01-22T12:52:40.949Z,15.70
2023-01-22T12:55:34.991Z,18.15
2023-01-22T12:58:26.234Z,16.83
2023-01-22T13:04:13.827Z,17.27
2023-01-22T13:07:06.923Z,15.73
2023-01-22T13:10:02.727Z,17.30
2023-01-22T13:12:52.986Z,15.32
2023-01-22T13:15:42.580Z,16.47
2023-01-22T13:18:34.924Z,15.77
2023-01-22T13:21:28.795Z,17.73
2023-01-22T13:24:18.658Z,17.60
2023-01-22T13:27:06.867Z,19.05
2023-01-22T13:30:07.905Z,17.13
2023-01-22T13:33:07.245Z,15.85
2023-01-22T13:35:56.299Z,15.38
2023-01-22T13:38:52.470Z,14.48
2023-01-22T13:41:41.982Z,17.15
2023-01-22T13:44:37.004Z,14.30
2023-01-22T13:47:32.649Z,14.70
2023-01-22T13:50:22.897Z,14.63
2023-01-22T13:53:18.517Z,13.98
2023-01-22T13:56:14.531Z,18.05
2023-01-22T13:59:08.488Z,14.60
2023-01-22T14:01:56.766Z,19.35
2023-01-22T14:04:45.256Z,18.05
2023-01-22T14:07:35.256Z,17.63
2023-01-22T14:10:26.419Z,17.38
2023-01-22T14:13:16.637Z,22.80
2023-01-22T14:16:06.973Z,18.20
2023-01-22T14:18:55.387Z,21.20
2023-01-22T14:21:43.730Z,20.80
2023-01-22T14:24:32.062Z,22.13
2023-01-22T14:27:20.948Z,21.67
2023-01-22T14:30:14.537Z,24.83
2023-01-22T14:33:03.477Z,22.38
2023-01-22T14:35:52.155Z,23.60
2023-01-22T14:38:40.468Z,22.23
2023-01-22T14:41:29.081Z,23.15
2023-01-22T14:44:17.301Z,21.98
2023-01-22T14:47:06.978Z,28.73
2023-01-22T14:49:55.249Z,32.60
2023-01-22T14:52:43.537Z,30.17
2023-01-22T14:55:31.876Z,26.23
2023-01-22T14:58:22.517Z,26.90
2023-01-22T15:01:18.861Z,26.67
2023-01-22T15:04:08.755Z,25.75
2023-01-22T15:06:57.360Z,27.15
2023-01-22T15:09:45.747Z,29.67
2023-01-22T15:12:34.218Z,38.20
2023-01-22T15:15:26.389Z,23.95
2023-01-22T15:18:15.284Z,26.42
2023-01-22T15:21:06.176Z,27.73
2023-01-22T15:23:54.525Z,29.08
2023-01-22T15:26:43.439Z,27.90
2023-01-22T15:29:31.952Z,25.88
2023-01-22T15:32:20.184Z,24.08
2023-01-22T15:35:09.361Z,25.10
2023-01-22T15:37:59.167Z,24.52
2023-01-22T15:40:47.443Z,21.90
2023-01-22T15:43:35.700Z,25.58
2023-01-22T15:46:26.526Z,21.33
2023-01-22T15:49:15.341Z,22.63
2023-01-22T15:52:03.610Z,23.92
2023-01-22T15:54:54.595Z,22.95
2023-01-22T15:57:42.818Z,23.35
2023-01-22T16:00:31.513Z,20.60
2023-01-22T16:03:19.911Z,20.98
2023-01-22T16:06:09.578Z,23.25
2023-01-22T16:08:59.778Z,23.48
2023-01-22T16:11:50.104Z,21.75
2023-01-22T16:14:38.396Z,21.93
2023-01-22T16:17:27.006Z,22.25
2023-01-22T16:20:15.541Z,18.15
2023-01-22T16:23:03.637Z,18.70
2023-01-22T16:25:51.765Z,19.80
2023-01-22T16:28:41.982Z,21.90
2023-01-22T16:31:32.356Z,20.45
2023-01-22T16:34:21.660Z,19.42
2023-01-22T16:37:09.829Z,18.98
2023-01-22T16:39:58.034Z,21.23
2023-01-22T16:42:59.349Z,23.77
2023-01-22T16:45:48.885Z,23.83
2023-01-22T16:48:37.070Z,20.45
2023-01-22T16:51:26.864Z,20.20
2023-01-22T16:54:20.661Z,21.08
2023-01-22T16:57:09.701Z,22.92
2023-01-22T16:59:58.046Z,20.10
2023-01-22T17:02:47.719Z,20.20
2023-01-22T17:05:35.969Z,21.48
2023-01-22T17:08:24.141Z,22.38
2023-01-22T17:11:16.297Z,21.83
2023-01-22T17:14:06.849Z,19.70
2023-01-22T17:16:56.426Z,22.33
2023-01-22T17:19:45.906Z,21.60
2023-01-22T17:22:35.955Z,24.55
2023-01-22T17:25:24.132Z,29.00
2023-01-22T17:28:12.298Z,22.45
2023-01-22T17:31:00.548Z,28.08
2023-01-22T17:33:49.790Z,22.88
2023-01-22T17:36:39.883Z,22.10
2023-01-22T17:39:28.168Z,21.77
2023-01-22T17:42:16.360Z,25.42
2023-01-22T17:45:04.819Z,23.08
2023-01-22T17:47:53.012Z,23.60
2023-01-22T17:50:41.821Z,23.42
2023-01-22T17:53:31.656Z,25.48
2023-01-22T17:56:21.872Z,22.48
2023-01-22T17:59:11.309Z,24.67
2023-01-22T18:02:00.243Z,23.88
2023-01-22T18:04:48.660Z,25.60
2023-01-22T18:07:37.853Z,28.27
2023-01-22T18:10:28.228Z,28.88
2023-01-22T18:13:16.494Z,22.45
2023-01-22T18:16:05.101Z,25.40
2023-01-22T18:18:54.571Z,26.23
2023-01-22T18:21:42.889Z,26.55
2023-01-22T18:24:33.382Z,26.77
2023-01-22T18:27:24.056Z,29.95
2023-01-22T18:30:14.852Z,28.42
2023-01-22T18:33:03.104Z,30.20
2023-01-22T18:35:53.848Z,26.27
2023-01-22T18:38:43.067Z,30.27
2023-01-22T18:41:31.811Z,28.60
2023-01-22T18:44:22.669Z,30.30
2023-01-22T18:47:11.276Z,27.42
2023-01-22T18:49:59.495Z,31.80
2023-01-22T18:52:49.261Z,30.13
2023-01-22T18:55:38.059Z,38.92
2023-01-22T18:58:30.561Z,28.58
2023-01-22T19:01:23.213Z,31.90
2023-01-22T19:04:17.899Z,30.08
2023-01-22T19:07:06.436Z,32.00
2023-01-22T19:09:54.917Z,31.13
2023-01-22T19:12:43.177Z,32.42
2023-01-22T19:15:32.433Z,28.45
2023-01-22T19:18:21.977Z,37.80
2023-01-22T19:21:13.229Z,30.70
2023-01-22T19:26:52.147Z,38.63
2023-01-22T19:29:40.364Z,33.10
2023-01-22T19:32:30.347Z,33.50
2023-01-22T19:35:20.336Z,33.67
2023-01-22T19:38:10.510Z,32.83
2023-01-22T19:40:58.966Z,35.25
2023-01-22T19:43:48.028Z,36.17
2023-01-22T19:46:37.918Z,34.30
2023-01-22T19:49:26.224Z,31.40
2023-01-22T19:52:15.737Z,32.97
2023-01-22T19:55:04.095Z,30.15
2023-01-22T19:57:52.276Z,33.22
2023-01-22T20:00:40.535Z,33.90
2023-01-22T20:03:28.724Z,33.20
2023-01-22T20:06:18.910Z,32.58
2023-01-22T20:09:08.461Z,35.38
2023-01-22T20:11:58.169Z,29.70
2023-01-22T20:14:46.519Z,33.90
2023-01-22T20:17:36.558Z,32.50
2023-01-22T20:20:26.106Z,32.63
2023-01-22T20:23:14.309Z,31.60
2023-01-22T20:26:09.145Z,33.85
2023-01-22T20:28:57.413Z,32.08
2023-01-22T20:31:45.622Z,31.92
2023-01-22T20:34:34.132Z,31.73
2023-01-22T20:37:22.289Z,28.95
2023-01-22T20:40:12.048Z,31.92
2023-01-22T20:43:01.731Z,29.75
2023-01-22T20:46:00.590Z,33.53
2023-01-22T20:48:49.419Z,33.70
2023-01-22T20:51:38.096Z,30.38
2023-01-22T20:54:27.923Z,32.33
2023-01-22T20:57:16.053Z,32.05
2023-01-22T21:00:07.071Z,31.17
2023-01-22T21:02:55.271Z,32.50
2023-01-22T21:05:43.556Z,28.17
2023-01-22T21:08:31.981Z,30.80
2023-01-22T21:11:21.834Z,32.17
2023-01-22T21:14:15.760Z,30.33
2023-01-22T21:17:05.548Z,34.38
2023-01-22T21:19:55.274Z,27.80
2023-01-22T21:22:43.502Z,29.65
2023-01-22T21:25:31.639Z,31.67
2023-01-22T21:28:20.364Z,33.80
2023-01-22T21:31:11.889Z,26.65
2023-01-22T21:34:03.414Z,30.10
2023-01-22T21:36:54.645Z,27.10
2023-01-22T21:42:50.850Z,26.95
2023-01-22T21:45:59.667Z,30.45
2023-01-22T21:48:47.953Z,33.90
2023-01-22T21:51:37.501Z,27.90
2023-01-22T21:54:28.382Z,35.08
2023-01-22T21:57:20.464Z,30.45
2023-01-22T22:00:10.246Z,34.90
2023-01-22T22:02:58.757Z,35.67
2023-01-22T22:05:55.921Z,33.95
2023-01-22T22:08:45.586Z,33.05
2023-01-22T22:11:34.166Z,30.75
2023-01-22T22:14:22.353Z,31.80
2023-01-22T22:17:10.863Z,34.65
2023-01-22T22:19:59.058Z,31.88
2023-01-22T22:22:47.199Z,32.55
2023-01-22T22:25:36.694Z,31.33
2023-01-22T22:28:25.394Z,28.95
2023-01-22T22:31:16.512Z,35.13
2023-01-22T22:34:05.323Z,34.50
2023-01-22T22:36:53.631Z,30.33
2023-01-22T22:39:41.847Z,35.47
2023-01-22T22:42:31.325Z,33.20
2023-01-22T22:45:19.827Z,31.60
2023-01-22T22:48:08.033Z,31.55
2023-01-22T22:50:56.215Z,30.75
2023-01-22T22:53:44.738Z,31.65
2023-01-22T22:56:33.483Z,33.90
2023-01-22T22:59:23.013Z,31.33
2023-01-22T23:02:11.284Z,35.20
2023-01-22T23:04:59.519Z,33.65
2023-01-22T23:07:47.708Z,32.97
2023-01-22T23:10:38.927Z,35.25
2023-01-22T23:16:19.020Z,29.48
2023-01-22T23:19:10.249Z,32.88
2023-01-22T23:22:00.154Z,32.67
2023-01-22T23:24:48.285Z,32.58
2023-01-22T23:27:36.445Z,33.42
2023-01-22T23:30:25.328Z,30.20
2023-01-22T23:33:14.862Z,32.22
2023-01-22T23:36:03.764Z,32.42
2023-01-22T23:38:51.947Z,34.50
2023-01-22T23:41:40.189Z,32.95
2023-01-22T23:44:28.381Z,31.27
2023-01-22T23:47:16.563Z,29.75
2023-01-22T23:50:07.135Z,30.95
2023-01-22T23:52:55.524Z,35.60
2023-01-22T23:55:44.388Z,30.67
2023-01-22T23:58:32.916Z,31.92
